sensor_id;sensor_type;location;lat;lon;timestamp;P1;durP1;ratioP1;P2;durP2;ratioP2
25249;SDS011;13201;51.148;13.738;2022-07-23T00:01:21;3.72;;;3.13;;
25249;SDS011;13201;51.148;13.738;2022-07-23T00:03:47;5.23;;;3.53;;
25249;SDS011;13201;51.148;13.738;2022-07-23T00:06:13;5.30;;;3.20;;
25249;SDS011;13201;51.148;13.738;2022-07-23T00:08:38;7.32;;;3.38;;
25249;SDS011;13201;51.148;13.738;2022-07-23T00:11:04;4.35;;;3.05;;
25249;SDS011;13201;51.148;13.738;2022-07-23T00:13:30;5.77;;;3.33;;
25249;SDS011;13201;51.148;13.738;2022-07-23T00:15:56;5.63;;;3.22;;
25249;SDS011;13201;51.148;13.738;2022-07-23T00:18:21;3.92;;;3.50;;
25249;SDS011;13201;51.148;13.738;2022-07-23T00:20:47;5.47;;;3.40;;
25249;SDS011;13201;51.148;13.738;2022-07-23T00:23:13;4.95;;;3.17;;
25249;SDS011;13201;51.148;13.738;2022-07-23T00:25:38;3.70;;;3.28;;
25249;SDS011;13201;51.148;13.738;2022-07-23T00:28:04;4.10;;;3.40;;
25249;SDS011;13201;51.148;13.738;2022-07-23T00:30:30;4.75;;;3.70;;
25249;SDS011;13201;51.148;13.738;2022-07-23T00:32:58;4.78;;;3.40;;
25249;SDS011;13201;51.148;13.738;2022-07-23T00:35:26;4.40;;;3.30;;
25249;SDS011;13201;51.148;13.738;2022-07-23T00:37:53;4.90;;;3.40;;
25249;SDS011;13201;51.148;13.738;2022-07-23T00:40:19;4.82;;;3.28;;
25249;SDS011;13201;51.148;13.738;2022-07-23T00:42:45;3.53;;;3.22;;
25249;SDS011;13201;51.148;13.738;2022-07-23T00:45:11;5.75;;;3.17;;
25249;SDS011;13201;51.148;13.738;2022-07-23T00:47:37;6.37;;;3.43;;
25249;SDS011;13201;51.148;13.738;2022-07-23T00:50:03;4.10;;;3.70;;
25249;SDS011;13201;51.148;13.738;2022-07-23T00:52:31;5.80;;;3.58;;
25249;SDS011;13201;51.148;13.738;2022-07-23T00:54:57;4.40;;;3.58;;
25249;SDS011;13201;51.148;13.738;2022-07-23T00:57:23;5.68;;;3.55;;
25249;SDS011;13201;51.148;13.738;2022-07-23T00:59:49;4.13;;;3.30;;
25249;SDS011;13201;51.148;13.738;2022-07-23T01:02:14;5.45;;;3.63;;
25249;SDS011;13201;51.148;13.738;2022-07-23T01:04:40;4.35;;;3.67;;
25249;SDS011;13201;51.148;13.738;2022-07-23T01:32:35;4.25;;;3.75;;
25249;SDS011;13201;51.148;13.738;2022-07-23T01:35:01;6.72;;;4.38;;
25249;SDS011;13201;51.148;13.738;2022-07-23T01:37:26;4.05;;;3.63;;
25249;SDS011;13201;51.148;13.738;2022-07-23T01:39:52;4.30;;;3.85;;
25249;SDS011;13201;51.148;13.738;2022-07-23T01:42:18;4.65;;;3.75;;
25249;SDS011;13201;51.148;13.738;2022-07-23T01:44:43;6.53;;;3.50;;
25249;SDS011;13201;51.148;13.738;2022-07-23T01:47:09;6.18;;;3.85;;
25249;SDS011;13201;51.148;13.738;2022-07-23T01:49:35;5.03;;;4.25;;
25249;SDS011;13201;51.148;13.738;2022-07-23T01:52:00;6.25;;;3.97;;
25249;SDS011;13201;51.148;13.738;2022-07-23T01:54:27;6.20;;;4.45;;
25249;SDS011;13201;51.148;13.738;2022-07-23T01:56:53;4.25;;;3.65;;
25249;SDS011;13201;51.148;13.738;2022-07-23T01:59:20;4.20;;;3.70;;
25249;SDS011;13201;51.148;13.738;2022-07-23T02:01:46;4.82;;;4.07;;
25249;SDS011;13201;51.148;13.738;2022-07-23T02:04:12;4.78;;;4.20;;
25249;SDS011;13201;51.148;13.738;2022-07-23T02:06:37;5.63;;;4.07;;
25249;SDS011;13201;51.148;13.738;2022-07-23T02:09:03;5.03;;;4.22;;
25249;SDS011;13201;51.148;13.738;2022-07-23T02:11:29;6.82;;;4.30;;
25249;SDS011;13201;51.148;13.738;2022-07-23T02:13:54;7.10;;;4.20;;
25249;SDS011;13201;51.148;13.738;2022-07-23T02:16:20;6.45;;;4.28;;
25249;SDS011;13201;51.148;13.738;2022-07-23T02:18:46;4.50;;;4.10;;
25249;SDS011;13201;51.148;13.738;2022-07-23T02:21:11;4.30;;;3.90;;
25249;SDS011;13201;51.148;13.738;2022-07-23T02:23:37;5.27;;;4.50;;
25249;SDS011;13201;51.148;13.738;2022-07-23T02:26:03;5.72;;;4.28;;
25249;SDS011;13201;51.148;13.738;2022-07-23T02:28:29;4.68;;;4.05;;
25249;SDS011;13201;51.148;13.738;2022-07-23T02:30:55;4.32;;;3.88;;
25249;SDS011;13201;51.148;13.738;2022-07-23T02:33:20;5.90;;;4.20;;
25249;SDS011;13201;51.148;13.738;2022-07-23T02:35:46;4.95;;;4.40;;
25249;SDS011;13201;51.148;13.738;2022-07-23T02:38:11;6.82;;;4.22;;
25249;SDS011;13201;51.148;13.738;2022-07-23T02:40:37;5.43;;;4.00;;
25249;SDS011;13201;51.148;13.738;2022-07-23T02:43:03;6.05;;;3.75;;
25249;SDS011;13201;51.148;13.738;2022-07-23T02:45:29;5.22;;;3.85;;
25249;SDS011;13201;51.148;13.738;2022-07-23T02:47:54;6.05;;;3.90;;
25249;SDS011;13201;51.148;13.738;2022-07-23T02:50:20;5.07;;;4.30;;
25249;SDS011;13201;51.148;13.738;2022-07-23T02:52:46;5.65;;;4.28;;
25249;SDS011;13201;51.148;13.738;2022-07-23T02:55:11;4.68;;;4.10;;
25249;SDS011;13201;51.148;13.738;2022-07-23T02:57:37;4.65;;;4.10;;
25249;SDS011;13201;51.148;13.738;2022-07-23T03:00:03;7.15;;;4.28;;
25249;SDS011;13201;51.148;13.738;2022-07-23T03:02:30;5.03;;;4.35;;
25249;SDS011;13201;51.148;13.738;2022-07-23T03:04:55;5.55;;;4.30;;
25249;SDS011;13201;51.148;13.738;2022-07-23T03:07:21;5.78;;;4.38;;
25249;SDS011;13201;51.148;13.738;2022-07-23T03:09:47;5.45;;;4.13;;
25249;SDS011;13201;51.148;13.738;2022-07-23T03:12:13;9.18;;;4.40;;
25249;SDS011;13201;51.148;13.738;2022-07-23T03:14:38;16.80;;;5.03;;
25249;SDS011;13201;51.148;13.738;2022-07-23T03:17:04;21.02;;;5.28;;
25249;SDS011;13201;51.148;13.738;2022-07-23T03:19:30;7.68;;;4.40;;
25249;SDS011;13201;51.148;13.738;2022-07-23T03:21:55;8.82;;;4.35;;
25249;SDS011;13201;51.148;13.738;2022-07-23T03:24:21;5.03;;;4.53;;
25249;SDS011;13201;51.148;13.738;2022-07-23T03:26:48;5.75;;;4.30;;
25249;SDS011;13201;51.148;13.738;2022-07-23T03:29:14;6.37;;;4.10;;
25249;SDS011;13201;51.148;13.738;2022-07-23T03:31:40;5.05;;;4.03;;
25249;SDS011;13201;51.148;13.738;2022-07-23T03:34:06;4.47;;;4.07;;
25249;SDS011;13201;51.148;13.738;2022-07-23T03:36:31;4.32;;;3.92;;
25249;SDS011;13201;51.148;13.738;2022-07-23T03:38:57;6.20;;;4.43;;
25249;SDS011;13201;51.148;13.738;2022-07-23T03:41:22;6.35;;;4.32;;
25249;SDS011;13201;51.148;13.738;2022-07-23T03:43:48;5.57;;;3.83;;
25249;SDS011;13201;51.148;13.738;2022-07-23T03:46:14;6.05;;;4.28;;
25249;SDS011;13201;51.148;13.738;2022-07-23T03:48:39;12.55;;;4.78;;
25249;SDS011;13201;51.148;13.738;2022-07-23T03:51:05;7.18;;;4.93;;
25249;SDS011;13201;51.148;13.738;2022-07-23T03:53:30;5.28;;;4.28;;
25249;SDS011;13201;51.148;13.738;2022-07-23T03:55:56;8.25;;;4.38;;
25249;SDS011;13201;51.148;13.738;2022-07-23T03:58:22;7.53;;;4.70;;
25249;SDS011;13201;51.148;13.738;2022-07-23T04:00:47;5.75;;;4.20;;
25249;SDS011;13201;51.148;13.738;2022-07-23T04:03:13;8.30;;;4.53;;
25249;SDS011;13201;51.148;13.738;2022-07-23T04:05:38;6.28;;;4.82;;
25249;SDS011;13201;51.148;13.738;2022-07-23T04:08:04;9.15;;;5.63;;
25249;SDS011;13201;51.148;13.738;2022-07-23T04:10:30;7.50;;;5.95;;
25249;SDS011;13201;51.148;13.738;2022-07-23T04:12:55;10.52;;;4.95;;
25249;SDS011;13201;51.148;13.738;2022-07-23T04:15:21;11.95;;;5.88;;
25249;SDS011;13201;51.148;13.738;2022-07-23T04:17:47;7.75;;;4.80;;
25249;SDS011;13201;51.148;13.738;2022-07-23T04:20:12;5.55;;;5.03;;
25249;SDS011;13201;51.148;13.738;2022-07-23T04:22:38;7.10;;;4.68;;
25249;SDS011;13201;51.148;13.738;2022-07-23T04:25:04;11.85;;;4.72;;
25249;SDS011;13201;51.148;13.738;2022-07-23T04:27:30;5.53;;;4.10;;
25249;SDS011;13201;51.148;13.738;2022-07-23T04:29:58;9.45;;;4.28;;
25249;SDS011;13201;51.148;13.738;2022-07-23T04:32:24;5.65;;;4.28;;
25249;SDS011;13201;51.148;13.738;2022-07-23T04:34:49;7.18;;;4.68;;
25249;SDS011;13201;51.148;13.738;2022-07-23T04:37:15;6.00;;;4.25;;
25249;SDS011;13201;51.148;13.738;2022-07-23T04:39:41;6.78;;;4.40;;
25249;SDS011;13201;51.148;13.738;2022-07-23T04:42:06;7.32;;;4.30;;
25249;SDS011;13201;51.148;13.738;2022-07-23T04:44:32;7.13;;;4.38;;
25249;SDS011;13201;51.148;13.738;2022-07-23T04:46:58;7.88;;;4.18;;
25249;SDS011;13201;51.148;13.738;2022-07-23T04:49:23;5.68;;;4.32;;
25249;SDS011;13201;51.148;13.738;2022-07-23T04:51:49;15.35;;;5.50;;
25249;SDS011;13201;51.148;13.738;2022-07-23T04:54:14;6.95;;;4.28;;
25249;SDS011;13201;51.148;13.738;2022-07-23T04:56:40;10.10;;;4.13;;
25249;SDS011;13201;51.148;13.738;2022-07-23T04:59:06;5.00;;;4.05;;
25249;SDS011;13201;51.148;13.738;2022-07-23T05:01:31;6.05;;;4.18;;
25249;SDS011;13201;51.148;13.738;2022-07-23T05:03:57;6.45;;;4.22;;
25249;SDS011;13201;51.148;13.738;2022-07-23T05:06:22;6.90;;;4.00;;
25249;SDS011;13201;51.148;13.738;2022-07-23T05:08:48;5.22;;;3.92;;
25249;SDS011;13201;51.148;13.738;2022-07-23T05:11:14;5.72;;;3.85;;
25249;SDS011;13201;51.148;13.738;2022-07-23T05:13:39;7.50;;;4.20;;
25249;SDS011;13201;51.148;13.738;2022-07-23T05:16:05;5.40;;;3.65;;
25249;SDS011;13201;51.148;13.738;2022-07-23T05:18:31;6.97;;;4.20;;
25249;SDS011;13201;51.148;13.738;2022-07-23T05:20:56;6.18;;;4.13;;
25249;SDS011;13201;51.148;13.738;2022-07-23T05:23:22;5.70;;;3.47;;
25249;SDS011;13201;51.148;13.738;2022-07-23T05:25:48;4.55;;;3.80;;
25249;SDS011;13201;51.148;13.738;2022-07-23T05:28:14;6.57;;;3.72;;
25249;SDS011;13201;51.148;13.738;2022-07-23T05:30:40;9.55;;;5.10;;
25249;SDS011;13201;51.148;13.738;2022-07-23T05:33:06;7.03;;;4.60;;
